createdAt,value
2018-01-02T00:00:00.559Z,98.02
2018-01-02T00:01:09.387Z,98.02
2018-01-02T00:02:18.211Z,97.92
2018-01-02T00:03:27.037Z,97.07
2018-01-02T00:04:36.266Z,98.21
2018-01-02T00:05:45.093Z,97.74
2018-01-02T00:06:53.919Z,97.92
2018-01-02T00:08:02.748Z,97.64
2018-01-02T00:09:11.578Z,96.22
2018-01-02T00:10:20.552Z,97.07
2018-01-02T00:11:29.378Z,96.97
2018-01-02T00:12:38.205Z,97.07
2018-01-02T00:13:47.132Z,96.97
2018-01-02T00:14:55.961Z,96.59
2018-01-02T00:16:05.188Z,97.17
2018-01-02T00:17:14.015Z,97.17
2018-01-02T00:18:22.842Z,97.36
2018-01-02T00:19:31.669Z,96.41
2018-01-02T00:20:40.496Z,96.41
2018-01-02T00:21:49.324Z,96.69
2018-01-02T00:22:58.151Z,96.5
2018-01-02T00:24:06.979Z,96.5
2018-01-02T00:25:15.810Z,96.78
2018-01-02T00:26:24.908Z,96.78
2018-01-02T00:27:33.735Z,96.03
2018-01-02T00:28:42.562Z,95.27
2018-01-02T00:29:51.390Z,94.03
2018-01-02T00:31:00.216Z,94.32
2018-01-02T00:32:09.043Z,94.23
2018-01-02T00:33:17.969Z,93.84
2018-01-02T00:34:26.798Z,93.46
2018-01-02T00:35:35.627Z,93.84
2018-01-02T00:36:44.453Z,93.18
2018-01-02T00:37:53.282Z,91.56
2018-01-02T00:39:02.109Z,91.56
2018-01-02T00:40:10.937Z,91.75
2018-01-02T00:41:19.763Z,91.66
2018-01-02T00:42:28.589Z,91.38
2018-01-02T00:43:37.416Z,91.66
2018-01-02T00:44:46.672Z,91.47
2018-01-02T00:45:55.499Z,91.75
2018-01-02T00:47:04.326Z,91.75
2018-01-02T00:48:13.152Z,91.56
2018-01-02T00:49:22.251Z,91.56
2018-01-02T00:50:31.226Z,91.38
2018-01-02T00:51:40.051Z,91.38
2018-01-02T00:52:48.878Z,91.19
2018-01-02T00:53:57.703Z,91.52
2018-01-02T00:55:06.532Z,91.47
2018-01-02T00:56:15.507Z,91.14
2018-01-02T00:57:24.333Z,91.75
2018-01-02T00:58:33.158Z,91.47
2018-01-02T00:59:41.986Z,91.66
2018-01-02T01:00:50.812Z,91.47
2018-01-02T01:01:59.889Z,91.75
2018-01-02T01:03:08.716Z,91.52
2018-01-02T01:04:17.543Z,91.71
2018-01-02T01:05:26.368Z,91.71
2018-01-02T01:06:35.193Z,91.24
2018-01-02T01:07:44.018Z,91.71
2018-01-02T01:08:52.842Z,91.52
2018-01-02T01:10:01.942Z,91.47
2018-01-02T01:11:10.769Z,91.56
2018-01-02T01:12:19.595Z,91.33
2018-01-02T01:13:28.720Z,91.42
2018-01-02T01:14:37.546Z,91.33
2018-01-02T01:15:46.371Z,91.24
2018-01-02T01:16:55.204Z,91.71
2018-01-02T01:18:04.046Z,90.95
2018-01-02T01:19:13.435Z,91.14
2018-01-02T01:20:22.261Z,91.42
2018-01-02T01:21:31.087Z,91.05
2018-01-02T01:22:39.913Z,91.05
2018-01-02T01:23:48.740Z,91.05
2018-01-02T01:24:57.665Z,90.86
2018-01-02T01:26:06.768Z,90.95
2018-01-02T01:27:15.594Z,90.57
2018-01-02T01:28:24.420Z,91.24
2018-01-02T01:29:33.246Z,90.95
2018-01-02T01:30:42.222Z,90.29
2018-01-02T01:31:51.046Z,90.38
2018-01-02T01:32:59.872Z,90.38
2018-01-02T01:34:08.697Z,90.67
2018-01-02T01:35:17.523Z,90.38
2018-01-02T01:36:26.651Z,90.19
2018-01-02T01:37:35.478Z,89.81
2018-01-02T01:38:44.581Z,89.53
2018-01-02T01:39:53.408Z,89.72
2018-01-02T01:41:02.234Z,89.25
2018-01-02T01:42:11.162Z,89.53
2018-01-02T01:43:19.986Z,89.25
2018-01-02T01:44:28.813Z,89.15
2018-01-02T01:45:37.638Z,89.34
2018-01-02T01:46:46.466Z,88.87
2018-01-02T01:47:55.441Z,88.77
2018-01-02T01:49:04.265Z,88.96
2018-01-02T01:50:13.368Z,88.39
2018-01-02T01:51:22.196Z,88.01
2018-01-02T01:52:31.299Z,88.29
2018-01-02T01:53:40.424Z,87.92
2018-01-02T01:54:49.579Z,87.35
2018-01-02T01:55:58.406Z,87.35
2018-01-02T01:57:07.232Z,87.54
2018-01-02T01:58:16.057Z,87.63
2018-01-02T01:59:25.180Z,87.63
2018-01-02T02:00:34.004Z,86.02
2018-01-02T02:01:42.832Z,86.68
2018-01-02T02:02:51.659Z,86.59
2018-01-02T02:04:00.486Z,86.78
2018-01-02T02:05:09.314Z,86.59
2018-01-02T02:06:18.141Z,86.59
2018-01-02T02:07:26.966Z,86.78
2018-01-02T02:08:35.792Z,86.21
2018-01-02T02:09:44.618Z,86.78
2018-01-02T02:10:53.594Z,86.02
2018-01-02T02:12:02.419Z,86.11
2018-01-02T02:13:11.244Z,86.21
2018-01-02T02:14:20.070Z,85.74
2018-01-02T02:15:28.896Z,85.83
2018-01-02T02:16:37.822Z,85.93
2018-01-02T02:17:46.650Z,85.83
2018-01-02T02:18:55.475Z,85.74
2018-01-02T02:20:04.303Z,85.83
2018-01-02T02:21:13.129Z,85.83
2018-01-02T02:22:22.431Z,85.83
2018-01-02T02:23:31.255Z,85.93
2018-01-02T02:24:40.079Z,85.93
2018-01-02T02:25:48.909Z,85.93
2018-01-02T02:26:57.735Z,86.11
2018-01-02T02:28:06.810Z,86.11
2018-01-02T02:29:15.636Z,85.83
2018-01-02T02:30:24.464Z,85.93
2018-01-02T02:31:33.292Z,85.36
2018-01-02T02:32:42.126Z,85.45
2018-01-02T02:33:51.326Z,85.45
2018-01-02T02:35:00.154Z,85.55
2018-01-02T02:36:08.981Z,85.55
2018-01-02T02:37:17.805Z,85.74
2018-01-02T02:38:26.635Z,85.55
2018-01-02T02:39:35.508Z,85.22
2018-01-02T02:40:44.336Z,85.45
2018-01-02T02:41:53.161Z,85.36
2018-01-02T02:43:01.990Z,85.26
2018-01-02T02:44:11.440Z,85.64
2018-01-02T02:45:20.667Z,86.02
2018-01-02T02:46:29.764Z,85.26
2018-01-02T02:47:38.591Z,85.45
2018-01-02T02:48:47.415Z,85.83
2018-01-02T02:49:56.243Z,85.36
2018-01-02T02:51:05.069Z,84.78
2018-01-02T02:52:13.896Z,84.88
2018-01-02T02:53:22.722Z,84.65
2018-01-02T02:54:31.548Z,84.78
2018-01-02T02:55:40.374Z,84.41
2018-01-02T02:56:49.302Z,84.22
2018-01-02T02:57:58.127Z,84.41
2018-01-02T02:59:06.952Z,84.41
2018-01-02T03:00:15.778Z,84.08
2018-01-02T03:01:24.604Z,83.94
2018-01-02T03:02:33.433Z,83.84
2018-01-02T03:03:42.258Z,83.55
2018-01-02T03:04:51.082Z,83.36
2018-01-02T03:05:59.913Z,83.55
2018-01-02T03:07:08.740Z,83.46
2018-01-02T03:08:17.667Z,83.65
2018-01-02T03:09:26.488Z,83.36
2018-01-02T03:10:35.315Z,83.27
2018-01-02T03:11:44.139Z,83.17
2018-01-02T03:12:52.969Z,82.6
2018-01-02T03:14:01.894Z,80.24
2018-01-02T03:15:10.721Z,80.24
2018-01-02T03:16:19.817Z,80.04
2018-01-02T03:17:28.645Z,80.04
2018-01-02T03:18:37.473Z,80.14
2018-01-02T03:19:46.396Z,80.33
2018-01-02T03:20:55.221Z,80.04
2018-01-02T03:22:04.047Z,80.14
2018-01-02T03:23:12.871Z,80.48
2018-01-02T03:24:21.966Z,80
2018-01-02T03:25:30.794Z,80
2018-01-02T03:26:39.618Z,79.95
2018-01-02T03:27:48.444Z,80
2018-01-02T03:28:57.267Z,79.76
2018-01-02T03:30:06.368Z,80.33
2018-01-02T03:31:15.344Z,80.38
2018-01-02T03:32:24.170Z,80.19
2018-01-02T03:33:32.994Z,80.29
2018-01-02T03:34:41.823Z,80.48
2018-01-02T03:35:50.649Z,79.82
2018-01-02T03:36:59.796Z,79.72
2018-01-02T03:38:08.622Z,80
2018-01-02T03:39:17.446Z,80
2018-01-02T03:40:26.272Z,79.25
2018-01-02T03:41:35.098Z,79.53
2018-01-02T03:42:44.224Z,79.25
2018-01-02T03:43:53.056Z,79.15
2018-01-02T03:45:01.878Z,79.34
2018-01-02T03:46:10.703Z,79.53
2018-01-02T03:47:19.530Z,79.15
2018-01-02T03:48:28.506Z,79.25
2018-01-02T03:49:37.333Z,78.87
2018-01-02T03:50:46.156Z,78.2
2018-01-02T03:51:54.983Z,78.39
2018-01-02T03:53:03.810Z,78.3
2018-01-02T03:54:12.688Z,78.58
2018-01-02T03:55:21.513Z,77.06
2018-01-02T03:56:30.338Z,74.51
2018-01-02T03:57:39.161Z,75.02
2018-01-02T03:58:47.986Z,72.42
2018-01-02T03:59:56.860Z,72.84
2018-01-02T04:01:05.687Z,72.71
2018-01-02T04:02:14.512Z,73.18
2018-01-02T04:03:23.336Z,72.71
2018-01-02T04:04:32.438Z,72.52
2018-01-02T04:05:41.365Z,72.64
2018-01-02T04:06:50.241Z,71.89
2018-01-02T04:07:59.066Z,72.36
2018-01-02T04:09:07.901Z,72.33
2018-01-02T04:10:16.720Z,72.64
2018-01-02T04:11:25.696Z,72.33
2018-01-02T04:12:34.791Z,72.42
2018-01-02T04:13:43.621Z,72.55
2018-01-02T04:14:52.446Z,72.04
2018-01-02T04:16:01.272Z,71.85
2018-01-02T04:17:10.097Z,72.36
2018-01-02T04:18:18.922Z,72.55
2018-01-02T04:19:27.747Z,72.27
2018-01-02T04:20:36.846Z,72.23
2018-01-02T04:21:45.773Z,70.24
2018-01-02T04:22:54.699Z,71.13
2018-01-02T04:24:03.527Z,69.99
2018-01-02T04:25:12.354Z,70.75
2018-01-02T04:26:21.454Z,70.94
2018-01-02T04:27:30.283Z,70.72
2018-01-02T04:28:39.160Z,70.75
2018-01-02T04:29:47.986Z,70.84
2018-01-02T04:30:56.812Z,70.75
2018-01-02T04:32:05.638Z,70.72
2018-01-02T04:33:14.466Z,70.56
2018-01-02T04:34:23.864Z,70.56
2018-01-02T04:35:32.689Z,70.75
2018-01-02T04:36:41.515Z,70.84
2018-01-02T04:37:50.341Z,70.84
2018-01-02T04:38:59.165Z,70.84
2018-01-02T04:40:08.041Z,70.94
2018-01-02T04:41:16.866Z,70.94
2018-01-02T04:42:25.692Z,71.03
2018-01-02T04:43:34.518Z,70.94
2018-01-02T04:44:43.346Z,70.94
2018-01-02T04:45:52.473Z,71.03
2018-01-02T04:47:01.301Z,71.03
2018-01-02T04:48:10.125Z,70.65
2018-01-02T04:49:18.952Z,70.47
2018-01-02T04:50:28.055Z,70.28
2018-01-02T04:51:37.452Z,69.99
2018-01-02T04:52:46.280Z,69.71
2018-01-02T04:53:55.105Z,70.47
2018-01-02T04:55:03.936Z,69.13
2018-01-02T04:56:12.762Z,68
2018-01-02T04:57:21.840Z,68.76
2018-01-02T04:58:30.667Z,67.62
2018-01-02T04:59:39.492Z,67.65
2018-01-02T05:00:48.319Z,67.52
2018-01-02T05:01:57.143Z,67.05
2018-01-02T05:03:06.272Z,67.14
2018-01-02T05:04:15.097Z,66.29
2018-01-02T05:05:23.927Z,66.77
2018-01-02T05:06:32.751Z,66.48
2018-01-02T05:07:41.578Z,66.58
2018-01-02T05:08:50.505Z,66.2
2018-01-02T05:09:59.331Z,65.63
2018-01-02T05:11:08.157Z,64.59
2018-01-02T05:12:16.984Z,65.85
2018-01-02T05:13:25.811Z,66.01
2018-01-02T05:14:34.735Z,65.53
2018-01-02T05:15:43.562Z,64.97
2018-01-02T05:16:52.386Z,65.34
2018-01-02T05:18:01.213Z,65.63
2018-01-02T05:19:10.040Z,65.44
2018-01-02T05:20:18.864Z,65.06
2018-01-02T05:21:27.690Z,65.25
2018-01-02T05:22:36.516Z,64.97
2018-01-02T05:23:45.342Z,63.07
2018-01-02T05:24:54.168Z,63.17
2018-01-02T05:26:03.294Z,62.69
2018-01-02T05:27:12.118Z,62.88
2018-01-02T05:28:20.945Z,61.83
2018-01-02T05:29:29.770Z,61.17
2018-01-02T05:30:38.595Z,61.36
2018-01-02T05:31:47.425Z,61.17
2018-01-02T05:32:56.245Z,59.94
2018-01-02T05:34:05.070Z,59.27
2018-01-02T05:35:13.895Z,58.33
2018-01-02T05:36:22.724Z,58.64
2018-01-02T05:37:31.606Z,58.23
2018-01-02T05:38:40.423Z,57.66
2018-01-02T05:39:49.250Z,57.31
2018-01-02T05:40:58.075Z,56.93
2018-01-02T05:42:06.902Z,56.55
2018-01-02T05:43:15.776Z,56.24
2018-01-02T05:44:24.602Z,55.76
2018-01-02T05:45:33.426Z,55.1
2018-01-02T05:46:42.254Z,54.82
2018-01-02T05:47:51.080Z,54.25
2018-01-02T05:49:00.155Z,53.89
2018-01-02T05:50:08.980Z,54.18
2018-01-02T05:51:17.807Z,53.58
2018-01-02T05:52:26.632Z,53.39
2018-01-02T05:53:35.458Z,53.33
2018-01-02T05:54:44.583Z,52.66
2018-01-02T05:55:53.407Z,52.37
2018-01-02T05:57:02.233Z,52
2018-01-02T05:58:11.063Z,51.62
2018-01-02T05:59:19.887Z,51.62
2018-01-02T06:00:28.764Z,51.68
2018-01-02T06:01:37.625Z,51.4
2018-01-02T06:02:46.455Z,51.21
2018-01-02T06:03:55.284Z,50.64
2018-01-02T06:05:04.207Z,50.64
2018-01-02T06:06:13.334Z,50.01
2018-01-02T06:07:22.161Z,49.69
2018-01-02T06:08:30.986Z,49.63
2018-01-02T06:09:39.811Z,49.63
2018-01-02T06:10:48.640Z,48.68
2018-01-02T06:11:57.468Z,48.18
2018-01-02T06:13:06.294Z,48.2
2018-01-02T06:14:15.122Z,47.92
2018-01-02T06:15:23.948Z,48.3
2018-01-02T06:16:32.776Z,48.11
2018-01-02T06:17:41.702Z,48.2
2018-01-02T06:18:50.529Z,48.36
2018-01-02T06:19:59.359Z,48.11
2018-01-02T06:21:08.184Z,47.82
2018-01-02T06:22:17.011Z,48.11
2018-01-02T06:23:25.936Z,47.92
2018-01-02T06:24:34.764Z,47.8
2018-01-02T06:25:43.593Z,47.92
2018-01-02T06:26:52.421Z,48.49
2018-01-02T06:28:01.248Z,47.92
2018-01-02T06:29:10.224Z,48.39
2018-01-02T06:30:19.052Z,48.3
2018-01-02T06:31:27.878Z,48.2
2018-01-02T06:32:36.704Z,47.82
2018-01-02T06:33:45.534Z,47.92
2018-01-02T06:34:54.787Z,48.3
2018-01-02T06:36:03.614Z,47.92
2018-01-02T06:37:12.439Z,48.01
2018-01-02T06:38:21.266Z,47.63
2018-01-02T06:39:30.091Z,47.82
2018-01-02T06:40:39.298Z,48.3
2018-01-02T06:41:48.124Z,48.3
2018-01-02T06:42:56.949Z,48.58
2018-01-02T06:44:05.778Z,48.49
2018-01-02T06:45:14.606Z,48.39
2018-01-02T06:46:23.483Z,48.39
2018-01-02T06:47:32.310Z,48.3
2018-01-02T06:48:41.135Z,48.49
2018-01-02T06:49:49.962Z,47.92
2018-01-02T06:50:58.787Z,48.01
2018-01-02T06:52:08.287Z,48.3
2018-01-02T06:53:17.388Z,47.82
2018-01-02T06:54:26.214Z,48.39
2018-01-02T06:55:35.041Z,48.68
2018-01-02T06:56:43.867Z,49.43
2018-01-02T06:57:52.843Z,49.72
2018-01-02T06:59:01.669Z,48.96
2018-01-02T07:00:10.776Z,49.24
2018-01-02T07:01:19.604Z,49.34
2018-01-02T07:02:28.429Z,48.86
2018-01-02T07:03:37.664Z,50.38
2018-01-02T07:04:46.766Z,49.63
2018-01-02T07:05:55.593Z,49.15
2018-01-02T07:07:04.420Z,50.1
2018-01-02T07:08:13.247Z,51.05
2018-01-02T07:09:22.224Z,50.48
2018-01-02T07:10:31.052Z,51.24
2018-01-02T07:11:39.879Z,50.86
2018-01-02T07:12:48.711Z,50.95
2018-01-02T07:13:57.537Z,51.52
2018-01-02T07:15:06.364Z,50.86
2018-01-02T07:16:15.191Z,51.33
2018-01-02T07:17:24.018Z,51.24
2018-01-02T07:18:33.117Z,50.57
2018-01-02T07:19:41.944Z,50.57
2018-01-02T07:20:51.475Z,50.86
2018-01-02T07:22:00.580Z,51.14
2018-01-02T07:23:09.405Z,51.9
2018-01-02T07:24:18.230Z,51.9
2018-01-02T07:25:27.057Z,51.52
2018-01-02T07:26:35.935Z,52.19
2018-01-02T07:27:44.761Z,51.52
2018-01-02T07:28:53.587Z,52.28
2018-01-02T07:30:02.415Z,52.56
2018-01-02T07:31:11.516Z,52.16
2018-01-02T07:32:20.344Z,52.19
2018-01-02T07:33:29.270Z,51.4
2018-01-02T07:34:38.101Z,51.52
2018-01-02T07:35:46.924Z,52.37
2018-01-02T07:36:55.754Z,53.04
2018-01-02T07:38:05.008Z,53.02
2018-01-02T07:39:13.833Z,53.61
2018-01-02T07:40:22.663Z,53.96
2018-01-02T07:41:31.490Z,53.49
2018-01-02T07:42:40.315Z,53.8
2018-01-02T07:43:49.296Z,53.87
2018-01-02T07:44:58.678Z,54.06
2018-01-02T07:46:08.051Z,54.25
2018-01-02T07:47:16.877Z,54.63
2018-01-02T07:48:25.706Z,54.44
2018-01-02T07:49:34.862Z,54.53
2018-01-02T07:50:43.689Z,54.72
2018-01-02T07:51:52.516Z,54.91
2018-01-02T07:53:01.344Z,54.91
2018-01-02T07:54:10.171Z,54.91
2018-01-02T07:55:19.147Z,55.76
2018-01-02T07:56:27.975Z,55.96
2018-01-02T07:57:37.071Z,56.05
2018-01-02T07:58:45.902Z,56.05
2018-01-02T07:59:54.728Z,56.15
2018-01-02T08:01:03.553Z,56.34
2018-01-02T08:02:12.397Z,56.62
2018-01-02T08:03:21.237Z,56.62
2018-01-02T08:04:30.072Z,56.71
2018-01-02T08:05:38.905Z,55.96
2018-01-02T08:06:47.983Z,56.62
2018-01-02T08:07:56.810Z,56.99
2018-01-02T08:09:05.639Z,56.71
2018-01-02T08:10:14.464Z,55.86
2018-01-02T08:11:23.317Z,56.05
2018-01-02T08:12:32.243Z,56.05
2018-01-02T08:13:41.072Z,56.34
2018-01-02T08:14:49.896Z,56.52
2018-01-02T08:15:58.724Z,57.09
2018-01-02T08:17:07.552Z,56.62
2018-01-02T08:18:16.666Z,57.19
2018-01-02T08:19:25.494Z,56.81
2018-01-02T08:20:34.319Z,56.71
2018-01-02T08:21:43.145Z,57.09
2018-01-02T08:22:52.258Z,57.47
2018-01-02T08:24:01.334Z,57.66
2018-01-02T08:25:10.172Z,57.76
2018-01-02T08:26:18.987Z,57.38
2018-01-02T08:27:27.816Z,56.62
2018-01-02T08:28:36.650Z,57.19
2018-01-02T08:29:45.781Z,56.71
2018-01-02T08:30:54.606Z,56.81
2018-01-02T08:32:03.432Z,56.81
2018-01-02T08:33:12.260Z,57.19
2018-01-02T08:34:21.085Z,57.38
2018-01-02T08:35:30.238Z,56.71
2018-01-02T08:36:39.338Z,57.28
2018-01-02T08:37:48.164Z,57.76
2018-01-02T08:38:56.991Z,56.99
2018-01-02T08:40:05.820Z,58.33
2018-01-02T08:41:14.749Z,59.56
2018-01-02T08:42:23.573Z,59.84
2018-01-02T08:43:32.401Z,60.41
2018-01-02T08:44:41.228Z,60.7
2018-01-02T08:45:50.055Z,60.03
2018-01-02T08:46:59.183Z,60.7
2018-01-02T08:48:08.288Z,61.74
2018-01-02T08:49:17.116Z,62.5
2018-01-02T08:50:25.941Z,62.4
2018-01-02T08:51:34.768Z,62.78
2018-01-02T08:52:43.593Z,63.64
2018-01-02T08:53:52.708Z,63.2
2018-01-02T08:55:01.535Z,62.69
2018-01-02T08:56:10.361Z,63.82
2018-01-02T08:57:19.189Z,64.4
2018-01-02T08:58:28.020Z,63.92
2018-01-02T08:59:37.119Z,64.2
2018-01-02T09:00:45.946Z,63.73
2018-01-02T09:01:54.772Z,63.92
2018-01-02T09:03:03.600Z,64.4
2018-01-02T09:04:12.578Z,64.4
2018-01-02T09:05:21.403Z,64.01
2018-01-02T09:06:30.230Z,64.49
2018-01-02T09:07:39.057Z,64.78
2018-01-02T09:08:47.984Z,64.4
2018-01-02T09:09:57.110Z,64.68
2018-01-02T09:11:05.938Z,64.62
2018-01-02T09:12:14.765Z,64.49
2018-01-02T09:13:23.592Z,64.81
2018-01-02T09:14:32.420Z,65.25
2018-01-02T09:15:41.347Z,65.85
2018-01-02T09:16:50.176Z,65.53
2018-01-02T09:17:59.004Z,65.56
2018-01-02T09:19:08.104Z,64.78
2018-01-02T09:20:16.929Z,65.85
2018-01-02T09:21:25.757Z,65.37
2018-01-02T09:22:34.584Z,65.47
2018-01-02T09:23:43.412Z,65.63
2018-01-02T09:24:52.246Z,65.63
2018-01-02T09:26:01.347Z,65.28
2018-01-02T09:27:10.457Z,65.44
2018-01-02T09:28:19.282Z,64.2
2018-01-02T09:29:28.110Z,65.66
2018-01-02T09:30:37.214Z,66.61
2018-01-02T09:31:46.040Z,66.58
2018-01-02T09:32:54.918Z,67.27
2018-01-02T09:34:03.745Z,66.42
2018-01-02T09:35:12.575Z,66.52
2018-01-02T09:36:21.675Z,67.37
2018-01-02T09:37:30.501Z,66.61
2018-01-02T09:38:39.851Z,66.99
2018-01-02T09:39:48.680Z,66.42
2018-01-02T09:40:57.508Z,67.08
2018-01-02T09:42:06.337Z,66.42
2018-01-02T09:43:15.164Z,67.46
2018-01-02T09:44:24.290Z,67.18
2018-01-02T09:45:33.119Z,67.46
2018-01-02T09:46:41.945Z,66.99
2018-01-02T09:47:50.773Z,68.04
2018-01-02T09:48:59.601Z,66.71
2018-01-02T09:50:08.428Z,67.27
2018-01-02T09:51:17.253Z,66.42
2018-01-02T09:52:26.081Z,67.65
2018-01-02T09:53:34.909Z,68.13
2018-01-02T09:54:43.840Z,69.55
2018-01-02T09:55:53.043Z,70.03
2018-01-02T09:57:01.870Z,70.21
2018-01-02T09:58:10.695Z,69.36
2018-01-02T09:59:19.521Z,68.6
2018-01-02T10:00:28.347Z,69.08
2018-01-02T10:01:37.327Z,69.17
2018-01-02T10:02:46.152Z,68.98
2018-01-02T10:03:55.256Z,69.74
2018-01-02T10:05:04.083Z,69.55
2018-01-02T10:06:12.911Z,69.84
2018-01-02T10:07:21.840Z,70.21
2018-01-02T10:08:30.669Z,71.64
2018-01-02T10:09:39.496Z,71.92
2018-01-02T10:10:48.325Z,71.55
2018-01-02T10:11:57.429Z,71.96
2018-01-02T10:13:06.308Z,71.58
2018-01-02T10:14:15.409Z,70.78
2018-01-02T10:15:24.236Z,73.38
2018-01-02T10:16:33.064Z,74.52
2018-01-02T10:17:41.891Z,75.15
2018-01-02T10:18:50.719Z,75.15
2018-01-02T10:19:59.548Z,74.68
2018-01-02T10:21:08.377Z,72.91
2018-01-02T10:22:17.205Z,73.86
2018-01-02T10:23:26.316Z,73.76
2018-01-02T10:24:35.447Z,74.81
2018-01-02T10:25:44.825Z,75.95
2018-01-02T10:26:53.655Z,75.76
2018-01-02T10:28:02.484Z,75.19
2018-01-02T10:29:11.315Z,75.67
2018-01-02T10:30:20.404Z,73.76
2018-01-02T10:31:29.499Z,75.38
2018-01-02T10:32:38.370Z,76.04
2018-01-02T10:33:47.201Z,75.19
2018-01-02T10:34:56.033Z,74.62
2018-01-02T10:36:04.863Z,75
2018-01-02T10:37:13.694Z,75.38
2018-01-02T10:38:22.520Z,75.38
2018-01-02T10:39:31.351Z,73.96
2018-01-02T10:40:40.199Z,74.05
2018-01-02T10:41:49.085Z,75.19
2018-01-02T10:42:57.912Z,76.32
2018-01-02T10:44:06.745Z,76.61
2018-01-02T10:45:15.573Z,76.99
2018-01-02T10:46:24.401Z,76.9
2018-01-02T10:47:33.534Z,77.09
2018-01-02T10:48:42.360Z,77.28
2018-01-02T10:49:51.200Z,77.47
2018-01-02T10:51:00.032Z,76.32
2018-01-02T10:52:09.140Z,77.84
2018-01-02T10:53:18.119Z,78.7
2018-01-02T10:54:26.949Z,77.47
2018-01-02T10:55:35.778Z,77.94
2018-01-02T10:56:44.605Z,78.51
2018-01-02T10:57:53.433Z,79.36
2018-01-02T10:59:02.364Z,79.36
2018-01-02T11:00:11.195Z,79.36
2018-01-02T11:01:20.025Z,80.79
2018-01-02T11:02:28.854Z,80.22
2018-01-02T11:03:37.956Z,80.41
2018-01-02T11:04:46.836Z,80.51
2018-01-02T11:05:55.715Z,79.84
2018-01-02T11:07:04.549Z,81.45
2018-01-02T11:08:13.380Z,81.36
2018-01-02T11:09:22.212Z,82.12
2018-01-02T11:10:31.192Z,81.74
2018-01-02T11:11:40.021Z,81.36
2018-01-02T11:12:48.850Z,80.69
2018-01-02T11:13:57.678Z,82.03
2018-01-02T11:15:06.784Z,81.84
2018-01-02T11:16:15.712Z,81.45
2018-01-02T11:17:24.539Z,79.84
2018-01-02T11:18:33.365Z,80.88
2018-01-02T11:19:42.192Z,81.26
2018-01-02T11:20:51.021Z,83.78
2018-01-02T11:22:00.152Z,83.39
2018-01-02T11:23:08.977Z,83.36
2018-01-02T11:24:17.806Z,83.83
2018-01-02T11:25:26.636Z,82.54
2018-01-02T11:26:35.472Z,83.3
2018-01-02T11:27:44.452Z,83.3
2018-01-02T11:28:53.280Z,83.68
2018-01-02T11:30:02.114Z,82.92
2018-01-02T11:31:10.944Z,83.3
2018-01-02T11:32:19.771Z,84.34
2018-01-02T11:33:28.856Z,84.44
2018-01-02T11:34:37.955Z,82.92
2018-01-02T11:35:46.784Z,85.58
2018-01-02T11:36:55.616Z,84.63
2018-01-02T11:38:04.445Z,85.2
2018-01-02T11:39:13.322Z,84.44
2018-01-02T11:40:22.152Z,85.77
2018-01-02T11:41:31.257Z,83.49
2018-01-02T11:42:40.085Z,85.2
2018-01-02T11:43:48.965Z,85.96
2018-01-02T11:44:57.942Z,84.16
2018-01-02T11:46:06.772Z,85.49
2018-01-02T11:47:15.599Z,85.96
2018-01-02T11:48:24.427Z,85.58
2018-01-02T11:49:33.254Z,86.24
2018-01-02T11:50:42.383Z,86.05
2018-01-02T11:51:51.213Z,86.43
2018-01-02T11:53:00.043Z,85.96
2018-01-02T11:54:09.192Z,87.38
2018-01-02T11:55:17.973Z,88.24
2018-01-02T11:56:26.887Z,89.09
2018-01-02T11:57:35.741Z,89.09
2018-01-02T11:58:44.841Z,88.62
2018-01-02T11:59:53.671Z,86.05
2018-01-02T12:01:02.553Z,87.29
2018-01-02T12:02:11.381Z,89
2018-01-02T12:03:20.211Z,90.23
2018-01-02T12:04:29.040Z,89.67
2018-01-02T12:05:37.870Z,89.57
2018-01-02T12:06:46.750Z,89.09
2018-01-02T12:07:55.579Z,90.8
2018-01-02T12:09:04.408Z,91.75
2018-01-02T12:10:13.237Z,91.85
2018-01-02T12:11:22.068Z,92.9
2018-01-02T12:12:30.900Z,90.9
2018-01-02T12:13:39.769Z,91.94
2018-01-02T12:14:48.595Z,92.9
2018-01-02T12:15:57.426Z,93.18
2018-01-02T12:17:06.565Z,94.23
2018-01-02T12:18:15.398Z,93.08
2018-01-02T12:19:24.227Z,93.18
2018-01-02T12:20:33.058Z,92.9
2018-01-02T12:21:41.886Z,94.03
2018-01-02T12:22:50.765Z,92.13
2018-01-02T12:23:59.594Z,94.32
2018-01-02T12:25:08.466Z,93.46
2018-01-02T12:26:17.500Z,94.98
2018-01-02T12:27:26.338Z,94.6
2018-01-02T12:28:35.444Z,95.17
2018-01-02T12:29:44.271Z,95.08
2018-01-02T12:30:53.104Z,94.98
2018-01-02T12:32:01.936Z,96.22
2018-01-02T12:33:10.766Z,95.84
2018-01-02T12:34:19.651Z,96.03
2018-01-02T12:35:28.488Z,95.75
2018-01-02T12:36:37.318Z,95.94
2018-01-02T12:37:46.147Z,96.6
2018-01-02T12:38:54.977Z,95.55
2018-01-02T12:40:04.114Z,96.79
2018-01-02T12:41:12.951Z,96.69
2018-01-02T12:42:21.779Z,95.65
2018-01-02T12:43:30.612Z,96.98
2018-01-02T12:44:39.441Z,97.07
2018-01-02T12:45:48.269Z,97.55
2018-01-02T12:46:57.225Z,97.64
2018-01-02T12:48:06.231Z,94.03
2018-01-02T12:49:15.188Z,97.55
2018-01-02T12:50:24.595Z,96.69
2018-01-02T12:51:33.663Z,97.88
2018-01-02T12:52:42.623Z,96.41
2018-01-02T12:53:52.056Z,97.83
2018-01-02T12:55:00.939Z,97.97
2018-01-02T12:56:09.785Z,98.21
2018-01-02T12:57:18.607Z,98.64
2018-01-02T12:58:27.436Z,99.78
2018-01-02T12:59:36.290Z,99.88
2018-01-02T13:00:45.128Z,99.21
2018-01-02T13:01:53.958Z,99.99
2018-01-02T13:03:02.786Z,99.59
2018-01-02T13:04:11.615Z,99.99
2018-01-02T13:05:20.444Z,99.99
2018-01-02T13:06:29.274Z,99.99
2018-01-02T13:07:38.306Z,99.99
2018-01-02T13:08:47.157Z,99.99
2018-01-02T13:09:55.997Z,98.88
2018-01-02T13:11:04.978Z,96.6
2018-01-02T13:12:13.895Z,96.88
2018-01-02T13:13:22.799Z,93.46
2018-01-02T13:14:31.626Z,91.47
2018-01-02T13:15:40.460Z,92.9
2018-01-02T13:16:49.329Z,92.51
2018-01-02T13:17:58.181Z,92.04
2018-01-02T13:19:07.017Z,89.95
2018-01-02T13:20:15.843Z,89
2018-01-02T13:21:24.680Z,88.29
2018-01-02T13:22:33.513Z,86.77
2018-01-02T13:23:42.346Z,86.01
2018-01-02T13:24:51.180Z,84.49
2018-01-02T13:26:00.076Z,82.21
2018-01-02T13:27:08.906Z,79.27
2018-01-02T13:28:17.734Z,76.52
2018-01-02T13:29:26.702Z,73.48
2018-01-02T13:30:35.537Z,73.29
2018-01-02T13:31:44.388Z,73.29
2018-01-02T13:32:53.218Z,72.91
2018-01-02T13:34:02.475Z,72.91
2018-01-02T13:35:11.306Z,72.63
2018-01-02T13:36:20.135Z,72.25
2018-01-02T13:37:28.972Z,74.52
2018-01-02T13:38:38.428Z,73.38
2018-01-02T13:41:25.837Z,72.44
2018-01-02T13:42:34.664Z,73
2018-01-02T13:43:43.492Z,72.72
2018-01-02T13:44:52.525Z,72.44
2018-01-02T13:46:01.352Z,72.91
2018-01-02T13:47:10.180Z,72.44
2018-01-02T13:48:19.007Z,72.63
2018-01-02T13:49:28.115Z,72.44
2018-01-02T13:50:37.044Z,72.81
2018-01-02T13:51:45.871Z,73.1
2018-01-02T13:52:54.701Z,72.81
2018-01-02T13:54:03.531Z,71.3
2018-01-02T13:55:12.361Z,72.53
2018-01-02T13:56:21.240Z,71.96
2018-01-02T13:57:30.067Z,72.06
2018-01-02T13:58:38.915Z,72.34
2018-01-02T13:59:47.723Z,72.53
2018-01-02T14:00:56.550Z,72.34
2018-01-02T14:02:05.697Z,73
2018-01-02T14:03:14.798Z,73.38
2018-01-02T14:04:23.628Z,72.91
2018-01-02T14:05:32.455Z,73.19
2018-01-02T14:06:41.282Z,72.34
2018-01-02T14:07:50.111Z,73.38
2018-01-02T14:08:58.940Z,72.34
2018-01-02T14:10:07.767Z,73.38
2018-01-02T14:11:16.597Z,72.72
2018-01-02T14:12:25.710Z,74.71
2018-01-02T14:13:34.688Z,74.81
2018-01-02T14:14:43.518Z,73.96
2018-01-02T14:15:52.345Z,74.52
2018-01-02T14:17:01.174Z,74.62
2018-01-02T14:18:10.005Z,74.9
2018-01-02T14:19:19.010Z,74.62
2018-01-02T14:20:27.838Z,74.81
2018-01-02T14:21:36.667Z,74.62
2018-01-02T14:22:45.774Z,74.62
2018-01-02T14:23:54.605Z,76.52
2018-01-02T14:25:03.481Z,75.47
2018-01-02T14:26:12.312Z,75.38
2018-01-02T14:27:21.416Z,75.57
2018-01-02T14:28:30.245Z,75.57
2018-01-02T14:29:39.071Z,76.14
2018-01-02T14:30:47.950Z,75.76
2018-01-02T14:31:56.779Z,76.52
2018-01-02T14:33:05.607Z,76.42
2018-01-02T14:34:14.433Z,78.89
2018-01-02T14:35:23.262Z,77.37
2018-01-02T14:36:32.088Z,76.9
2018-01-02T14:37:40.918Z,78.61
2018-01-02T14:38:49.749Z,78.42
2018-01-02T14:39:58.576Z,77.84
2018-01-02T14:41:07.410Z,77.94
2018-01-02T14:42:16.230Z,77.18
2018-01-02T14:43:25.059Z,77.84
2018-01-02T14:44:33.887Z,77.75
2018-01-02T14:45:42.868Z,78.7
2018-01-02T14:46:51.709Z,79.17
2018-01-02T14:48:00.539Z,77.84
2018-01-02T14:49:09.366Z,77.94
2018-01-02T14:50:18.194Z,78.7
2018-01-02T14:51:27.173Z,78.32